Airfield :
LOGIN :

Register | Disclaimer

   EN    FR    IT 

 










Legend :    VFR   Marginal VFR   IFR   Intensive IFR   Very Intensive IFR
Visi :
Ceiling :
>= 8 km
>= 3000ft
5 to 8 km
1000 to 3000 ft
1500m to 5 km
500 to 1000 ft
800 to 1500m
200 to 500 ft
< 800m
< 200 ft
Symbols :   Thunderstorms  Fog  Heavy snow  Heavy precipitations  Wind > 20 kt
SIGMETs :     Misc.  Thunderstorms  Icing  Turbulence  Mountain Waves  Volcanic Ashes






- Airport Elevation : 481 ft
- IATA code : DNK


UKDD - Dnipropetrovs'k

CURRENT METAR :
  • 011700Z 05004MPS 9999 FEW033CB 13/12 Q1013 R08/250354 NOSIG

EXPIRED METARs :
  • 011600Z 06003MPS 3600 -SHRA SCT009 BKN033CB 13/12 Q1013 R08/250354 NOSIG
  • 011500Z 10003MPS 3700 -SHRA BKN009 BKN030CB 13/12 Q1014 R08/250354 NOSIG

TAF TAF UKDD
Valid from the 01 at 18:00 until the 02 at 18:00 UTC


011702Z 0118/0218 09005MPS 2100 BR BKN007 BKN020CB
TEMPO 0118/0206 0400 -SHRA FG BKN002 BKN015CB
BECMG 0206/0207 11006MPS 9999 NSW BKN010 BKN020CB
TEMPO 0207/0218 12007G12MPS 2100 -SHRA BR BKN007 BKN015CB
UKDV FIR / Europe



MET'MAP, your aeronautical weather chart ! - Copyright ORBIFLY December 2007 - Disclaimer

ORBIFLY MET'MAP TEAM :

Programming & Development : Alexandra Zaïnal
Concept & original design : Baudouin d'Aumeries
Assistance for programming : Marc-Olivier Méhu
Technical & hardware support : Manuel Goepfert

Contact : metmap@orbifly.com




SOURCES & CREDITS :

   NOAA